Time;durP1;ratioP1;P1;durP2;ratioP2;P2;SDS_P1;SDS_P2;PMS_P1;PMS_P2;Temp;Humidity;BMP_temperature;BMP_pressure;BME280_temperature;BME280_humidity;BME280_pressure;Samples;Min_cycle;Max_cycle;Signal;HPM_P1;HPM_P2
2022/12/14 00:02:12;;;;;;;11.95;7.20;;;;;;;-144.32;100.00;68061.97;10384628;28;20050;-81
2022/12/14 00:07:12;;;;;;;14.65;7.57;;;;;;;-144.32;100.00;68061.97;10364653;28;20830;-81
2022/12/14 00:12:15;;;;;;;10.25;6.50;;;;;;;-144.32;100.00;68061.97;10371592;28;20068;-83
2022/12/14 00:17:19;;;;;;;14.52;7.38;;;;;;;-144.32;100.00;68061.97;10367745;28;20035;-83
2022/12/14 00:22:21;;;;;;;11.90;6.88;;;;;;;-144.32;100.00;68061.97;10338158;28;20053;-81
2022/12/14 00:27:22;;;;;;;12.85;6.80;;;;;;;-144.32;100.00;68061.97;10352445;28;20054;-80
2022/12/14 00:32:23;;;;;;;13.60;6.80;;;;;;;-144.32;100.00;68061.97;10350999;28;20046;-84
2022/12/14 00:37:25;;;;;;;11.20;6.82;;;;;;;-144.32;100.00;68061.97;10335424;28;20046;-82
2022/12/14 00:42:25;;;;;;;14.73;7.32;;;;;;;-144.32;100.00;68061.97;10343177;28;20038;-82
2022/12/14 00:47:27;;;;;;;13.98;8.13;;;;;;;-144.32;100.00;68061.97;10342772;28;20068;-81
2022/12/14 00:52:29;;;;;;;15.18;7.60;;;;;;;-144.32;100.00;68061.97;10339959;28;20065;-81
2022/12/14 00:57:29;;;;;;;13.48;7.63;;;;;;;-144.32;100.00;68061.97;10339347;28;20077;-82
2022/12/14 01:02:32;;;;;;;13.80;7.43;;;;;;;-144.32;100.00;68061.97;10348929;28;20434;-79
2022/12/14 01:07:33;;;;;;;13.45;7.43;;;;;;;-144.32;100.00;68061.97;10411048;28;20037;-80
2022/12/14 01:12:35;;;;;;;12.52;7.22;;;;;;;-144.32;100.00;68061.97;10417580;28;20291;-79
2022/12/14 01:17:36;;;;;;;16.23;8.23;;;;;;;-144.32;100.00;68061.97;10385735;28;20150;-79
2022/12/14 01:22:41;;;;;;;14.53;8.13;;;;;;;-144.32;100.00;68061.97;10380124;28;20046;-80
2022/12/14 01:27:43;;;;;;;11.98;7.35;;;;;;;-144.32;100.00;68061.97;10406836;28;20596;-79
2022/12/14 01:32:46;;;;;;;17.08;8.05;;;;;;;-144.32;100.00;68061.97;10421419;28;20057;-79
2022/12/14 01:37:47;;;;;;;14.40;7.95;;;;;;;-144.32;100.00;68061.97;10420571;28;20026;-79
2022/12/14 01:42:48;;;;;;;15.45;8.00;;;;;;;-144.32;100.00;68061.97;10425654;28;20029;-78
2022/12/14 01:47:56;;;;;;;18.98;8.57;;;;;;;-144.32;100.00;68061.97;10428664;28;20058;-79
2022/12/14 01:53:05;;;;;;;15.15;8.65;;;;;;;-144.32;100.00;68061.97;10421875;28;20053;-75
2022/12/14 01:58:25;;;;;;;17.02;8.98;;;;;;;-144.32;100.00;68061.97;10428632;28;20041;-80
2022/12/14 02:03:29;;;;;;;17.15;8.90;;;;;;;-144.32;100.00;68061.97;10431048;28;20034;-82
2022/12/14 02:08:32;;;;;;;18.75;9.63;;;;;;;-144.32;100.00;68061.97;10374525;28;20550;-83
2022/12/14 02:13:40;;;;;;;13.90;8.63;;;;;;;-144.32;100.00;68061.97;10371815;28;20093;-84
2022/12/14 02:18:42;;;;;;;16.92;9.20;;;;;;;-144.32;100.00;68061.97;10375156;28;20076;-81
2022/12/14 02:24:19;;;;;;;19.17;8.98;;;;;;;-144.32;100.00;68061.97;10370096;28;20133;-80
2022/12/14 02:29:36;;;;;;;15.32;8.88;;;;;;;-144.32;100.00;68061.97;10359805;28;20150;-80
2022/12/14 02:34:46;;;;;;;15.27;9.00;;;;;;;-144.32;100.00;68061.97;10364260;28;20044;-80
2022/12/14 02:40:14;;;;;;;16.52;9.02;;;;;;;-144.32;100.00;68061.97;10370994;28;20502;-79
2022/12/14 02:45:52;;;;;;;17.30;8.60;;;;;;;-144.32;100.00;68061.97;10349719;28;20100;-81
2022/12/14 02:51:07;;;;;;;17.92;9.35;;;;;;;-144.32;100.00;68061.97;10363800;28;20137;-80
2022/12/14 02:56:11;;;;;;;13.73;8.40;;;;;;;-144.32;100.00;68061.97;10357467;28;20141;-80
2022/12/14 03:01:15;;;;;;;16.17;8.68;;;;;;;-144.32;100.00;68061.97;10367153;28;20121;-80
2022/12/14 03:06:25;;;;;;;19.05;9.63;;;;;;;-144.32;100.00;68061.97;10365882;28;20038;-79
2022/12/14 03:11:45;;;;;;;15.98;8.77;;;;;;;-144.32;100.00;68061.97;10368800;28;20042;-80
2022/12/14 03:16:50;;;;;;;14.70;8.80;;;;;;;-144.32;100.00;68061.97;10362160;28;20074;-81
2022/12/14 03:21:56;;;;;;;15.20;8.55;;;;;;;-144.32;100.00;68061.97;10384123;28;20052;-80
2022/12/14 03:27:06;;;;;;;16.70;8.95;;;;;;;-144.32;100.00;68061.97;10374554;28;20092;-80
2022/12/14 03:32:19;;;;;;;17.85;8.98;;;;;;;-144.32;100.00;68061.97;10373691;28;20042;-80
2022/12/14 03:37:29;;;;;;;17.65;9.75;;;;;;;-144.32;100.00;68061.97;10372596;28;20038;-80
2022/12/14 03:42:41;;;;;;;17.95;8.68;;;;;;;-144.32;100.00;68061.97;10366826;28;20042;-79
2022/12/14 03:47:47;;;;;;;17.33;9.35;;;;;;;-144.32;100.00;68061.97;10375767;28;20180;-80
2022/12/14 03:53:04;;;;;;;18.70;9.52;;;;;;;-144.32;100.00;68061.97;10381619;28;20056;-80
2022/12/14 03:58:42;;;;;;;16.88;9.20;;;;;;;-144.32;100.00;68061.97;10376734;28;20100;-81
2022/12/14 04:03:42;;;;;;;17.77;8.90;;;;;;;-144.32;100.00;68061.97;10372063;28;20091;-81
2022/12/14 04:08:55;;;;;;;14.75;8.40;;;;;;;-144.32;100.00;68061.97;10380529;28;20125;-81
2022/12/14 04:19:52;;;;;;;19.30;9.80;;;;;;;-144.32;100.00;68061.97;10368806;28;20046;-81
2022/12/14 04:30:20;;;;;;;17.27;9.30;;;;;;;-144.32;100.00;68061.97;10390104;28;20042;-83
2022/12/14 04:35:40;;;;;;;18.30;9.05;;;;;;;-144.32;100.00;68061.97;10397042;28;20053;-82
2022/12/14 04:40:50;;;;;;;20.58;9.85;;;;;;;-144.32;100.00;68061.97;10404133;28;20038;-87
2022/12/14 04:46:08;;;;;;;15.57;9.80;;;;;;;-144.32;100.00;68061.97;10381540;28;20064;-87
2022/12/14 04:51:34;;;;;;;16.75;9.00;;;;;;;-144.32;100.00;68061.97;10383012;28;20046;-85
2022/12/14 04:56:45;;;;;;;18.55;8.90;;;;;;;-144.32;100.00;68061.97;10381913;28;20078;-81
2022/12/14 05:01:48;;;;;;;17.17;9.23;;;;;;;-144.32;100.00;68061.97;10398864;28;20041;-81
2022/12/14 05:06:48;;;;;;;;;;;;;;;-144.32;100.00;68061.97;10394620;28;20030;-78
2022/12/14 05:12:26;;;;;;;19.20;9.80;;;;;;;-144.32;100.00;68061.97;10418341;28;19993;-79
2022/12/14 05:17:28;;;;;;;17.90;10.30;;;;;;;-144.32;100.00;68061.97;10416899;28;20104;-79
2022/12/14 05:22:29;;;;;;;18.17;9.23;;;;;;;-144.32;100.00;68061.97;10418359;28;20081;-79
2022/12/14 05:27:29;;;;;;;16.25;9.35;;;;;;;-144.32;100.00;68061.97;10426710;28;20447;-79
2022/12/14 05:32:32;;;;;;;16.20;9.57;;;;;;;-144.32;100.00;68061.97;10400063;28;20149;-83
2022/12/14 05:37:32;;;;;;;16.95;10.07;;;;;;;-144.32;100.00;68061.97;10413161;28;20025;-79
2022/12/14 05:42:33;;;;;;;19.25;9.63;;;;;;;-144.32;100.00;68061.97;10429565;28;20026;-77
2022/12/14 05:47:34;;;;;;;17.10;9.05;;;;;;;-144.32;100.00;68061.97;10426422;28;20093;-77
2022/12/14 05:52:36;;;;;;;21.52;10.20;;;;;;;-144.32;100.00;68061.97;10385147;28;20069;-79
2022/12/14 05:57:37;;;;;;;17.17;10.20;;;;;;;-144.32;100.00;68061.97;10385347;28;20418;-78
2022/12/14 06:02:38;;;;;;;20.45;10.88;;;;;;;-144.32;100.00;68061.97;10356386;28;20041;-79
2022/12/14 06:07:39;;;;;;;18.55;11.23;;;;;;;-144.32;100.00;68061.97;10373284;28;20129;-79
2022/12/14 06:12:39;;;;;;;20.98;10.25;;;;;;;-144.32;100.00;68061.97;10384994;28;20030;-77
2022/12/14 06:17:45;;;;;;;19.10;10.48;;;;;;;-144.32;100.00;68061.97;10372819;28;20092;-79
2022/12/14 06:22:47;;;;;;;18.27;9.50;;;;;;;-144.32;100.00;68061.97;10380142;28;20026;-79
2022/12/14 06:27:53;;;;;;;19.25;10.98;;;;;;;-144.32;100.00;68061.97;10379594;28;20133;-78
2022/12/14 06:32:56;;;;;;;18.15;9.70;;;;;;;-144.32;100.00;68061.97;10354469;28;20050;-80
2022/12/14 06:37:56;;;;;;;18.13;10.57;;;;;;;-144.32;100.00;68061.97;10411355;28;20037;-78
2022/12/14 06:42:57;;;;;;;18.73;10.88;;;;;;;-144.32;100.00;68061.97;10418545;28;20026;-78
2022/12/14 06:47:59;;;;;;;19.25;10.95;;;;;;;-144.32;100.00;68061.97;10416978;28;20102;-79
2022/12/14 06:53:01;;;;;;;18.70;9.57;;;;;;;-144.32;100.00;68061.97;10381729;28;20058;-79
2022/12/14 06:58:03;;;;;;;15.95;9.20;;;;;;;-144.32;100.00;68061.97;10389362;28;20441;-79
2022/12/14 07:03:04;;;;;;;20.20;10.35;;;;;;;-144.32;100.00;68061.97;10368179;28;20423;-80
2022/12/14 07:08:06;;;;;;;18.35;10.05;;;;;;;-144.32;100.00;68061.97;10378023;28;20627;-78
2022/12/14 07:13:06;;;;;;;19.33;11.75;;;;;;;-144.32;100.00;68061.97;10374439;28;20046;-79
2022/12/14 07:18:08;;;;;;;18.88;11.55;;;;;;;-144.32;100.00;68061.97;10361485;28;20510;-80
2022/12/14 07:23:09;;;;;;;18.58;9.90;;;;;;;-144.32;100.00;68061.97;10391006;28;20052;-81
2022/12/14 07:28:10;;;;;;;30.35;15.57;;;;;;;-144.32;100.00;68061.97;10379215;28;20438;-78
2022/12/14 07:33:11;;;;;;;17.92;10.25;;;;;;;-144.32;100.00;68061.97;10411372;28;20065;-80
2022/12/14 07:38:13;;;;;;;19.45;9.90;;;;;;;-144.32;100.00;68061.97;10416789;28;20097;-79
2022/12/14 07:43:14;;;;;;;18.63;9.73;;;;;;;-144.32;100.00;68061.97;10408918;28;20048;-80
2022/12/14 07:48:17;;;;;;;21.00;9.88;;;;;;;-144.32;100.00;68061.97;10400688;28;20049;-79
2022/12/14 07:53:19;;;;;;;20.75;10.30;;;;;;;-144.32;100.00;68061.97;10376274;28;20077;-83
2022/12/14 07:58:20;;;;;;;18.13;10.45;;;;;;;-144.32;100.00;68061.97;10380198;28;20485;-80
2022/12/14 08:03:20;;;;;;;17.10;9.80;;;;;;;-144.32;100.00;68061.97;10336812;28;20048;-81
2022/12/14 08:08:21;;;;;;;19.80;10.68;;;;;;;-144.32;100.00;68061.97;10353956;28;20037;-80
2022/12/14 08:13:23;;;;;;;17.75;10.25;;;;;;;-144.32;100.00;68061.97;10377180;28;20045;-80
2022/12/14 08:18:26;;;;;;;19.60;10.20;;;;;;;-144.32;100.00;68061.97;10389637;28;20109;-81
2022/12/14 08:23:28;;;;;;;22.17;11.50;;;;;;;-144.32;100.00;68061.97;10419591;28;20021;-79
2022/12/14 08:28:30;;;;;;;17.40;9.18;;;;;;;-144.32;100.00;68061.97;10420185;28;20061;-81
2022/12/14 08:33:33;;;;;;;19.77;10.13;;;;;;;-144.32;100.00;68061.97;10424445;28;20035;-80
2022/12/14 08:38:38;;;;;;;18.70;10.32;;;;;;;-144.32;100.00;68061.97;10374270;28;20042;-79
2022/12/14 08:43:41;;;;;;;17.65;10.60;;;;;;;-144.32;100.00;68061.97;10370743;28;20105;-81
2022/12/14 08:48:42;;;;;;;20.92;11.10;;;;;;;-144.32;100.00;68061.97;10388574;28;20061;-83
2022/12/14 08:53:46;;;;;;;20.55;10.57;;;;;;;-144.32;100.00;68061.97;10377844;28;20046;-81
2022/12/14 08:58:47;;;;;;;17.40;9.75;;;;;;;-144.32;100.00;68061.97;10385453;28;20054;-80
2022/12/14 09:03:48;;;;;;;19.55;10.95;;;;;;;-144.32;100.00;68061.97;10397077;28;20726;-79
2022/12/14 09:08:55;;;;;;;24.40;12.50;;;;;;;-144.32;100.00;68061.97;10420824;28;20042;-78
2022/12/14 09:13:57;;;;;;;;;;;;;;;-144.32;100.00;68061.97;10404714;28;20045;-79
2022/12/14 09:18:59;;;;;;;20.95;11.13;;;;;;;-144.32;100.00;68061.97;10425048;28;19939;-80
2022/12/14 09:24:03;;;;;;;21.63;11.38;;;;;;;-144.32;100.00;68061.97;10424845;28;20077;-79
2022/12/14 09:29:14;;;;;;;19.63;10.38;;;;;;;-144.32;100.00;68061.97;10415373;28;20026;-81
2022/12/14 09:34:16;;;;;;;19.65;11.40;;;;;;;-144.32;100.00;68061.97;10427336;28;20089;-80
2022/12/14 09:39:16;;;;;;;22.48;11.30;;;;;;;-144.32;100.00;68061.97;10393420;28;20046;-81
2022/12/14 09:44:56;;;;;;;19.38;11.70;;;;;;;-144.32;100.00;68061.97;10374372;28;20155;-81
2022/12/14 09:50:02;;;;;;;17.70;10.98;;;;;;;-144.32;100.00;68061.97;10353432;28;20049;-80
2022/12/14 09:55:28;;;;;;;19.88;12.27;;;;;;;-144.32;100.00;68061.97;10382738;28;20055;-80
2022/12/14 10:00:37;;;;;;;24.77;11.88;;;;;;;-144.32;100.00;68061.97;10372666;28;20058;-81
2022/12/14 10:05:38;;;;;;;21.25;12.18;;;;;;;-144.32;100.00;68061.97;10368840;28;20130;-81
2022/12/14 10:11:17;;;;;;;21.10;11.73;;;;;;;-144.32;100.00;68061.97;10366273;28;20432;-81
2022/12/14 10:16:39;;;;;;;21.83;10.73;;;;;;;-144.32;100.00;68061.97;10366742;28;20061;-82
2022/12/14 10:21:46;;;;;;;24.10;12.07;;;;;;;-144.32;100.00;68061.97;10370035;28;20089;-79
2022/12/14 10:26:52;;;;;;;24.65;12.45;;;;;;;-144.32;100.00;68061.97;10376614;28;20045;-80
2022/12/14 10:32:07;;;;;;;22.85;12.38;;;;;;;-144.32;100.00;68061.97;10367851;28;20132;-80
2022/12/14 10:37:22;;;;;;;22.98;12.55;;;;;;;-144.32;100.00;68061.97;10376887;28;20164;-82
2022/12/14 10:42:54;;;;;;;25.70;12.93;;;;;;;-144.32;100.00;68061.97;10354247;28;20510;-80
2022/12/14 10:48:30;;;;;;;22.92;13.40;;;;;;;-144.32;100.00;68061.97;10363304;28;20065;-81
2022/12/14 10:53:50;;;;;;;25.75;13.63;;;;;;;-144.32;100.00;68061.97;10368879;28;20037;-82
2022/12/14 10:59:16;;;;;;;24.23;12.93;;;;;;;-144.32;100.00;68061.97;10365411;28;20081;-81
2022/12/14 11:04:31;;;;;;;23.60;12.27;;;;;;;-144.32;100.00;68061.97;10353107;28;20054;-80
2022/12/14 11:09:32;;;;;;;22.65;12.32;;;;;;;-144.32;100.00;68061.97;10371649;28;20042;-79
2022/12/14 11:14:35;;;;;;;23.10;13.00;;;;;;;-144.32;100.00;68061.97;10380889;28;20053;-80
2022/12/14 11:19:36;;;;;;;24.85;12.35;;;;;;;-144.32;100.00;68061.97;10402635;28;20068;-80
2022/12/14 11:24:46;;;;;;;26.08;13.32;;;;;;;-144.32;100.00;68061.97;10381318;28;20054;-79
2022/12/14 11:29:49;;;;;;;20.17;12.00;;;;;;;-144.32;100.00;68061.97;10380329;28;20049;-80
2022/12/14 11:34:58;;;;;;;24.05;12.25;;;;;;;-144.32;100.00;68061.97;10403871;28;20026;-79
2022/12/14 11:40:02;;;;;;;24.17;12.45;;;;;;;-144.32;100.00;68061.97;10410547;28;20033;-80
2022/12/14 11:45:25;;;;;;;25.83;12.88;;;;;;;-144.32;100.00;68061.97;10409512;28;20049;-79
2022/12/14 11:50:26;;;;;;;27.23;13.45;;;;;;;-144.32;100.00;68061.97;10408898;28;20022;-81
2022/12/14 11:55:37;;;;;;;21.77;11.77;;;;;;;-144.32;100.00;68061.97;10408534;28;20042;-82
2022/12/14 12:00:49;;;;;;;24.02;13.05;;;;;;;-144.32;100.00;68061.97;10413617;28;20033;-82
2022/12/14 12:05:52;;;;;;;21.58;12.13;;;;;;;-144.32;100.00;68061.97;10410319;28;20046;-80
2022/12/14 12:10:58;;;;;;;26.23;13.15;;;;;;;-144.32;100.00;68061.97;10391776;28;20042;-81
2022/12/14 12:16:13;;;;;;;26.58;13.70;;;;;;;-144.32;100.00;68061.97;10368296;28;20541;-82
2022/12/14 12:21:36;;;;;;;25.00;14.40;;;;;;;-144.32;100.00;68061.97;10378476;28;20078;-82
2022/12/14 12:26:42;;;;;;;25.23;13.18;;;;;;;-144.32;100.00;68061.97;10371296;28;20140;-80
2022/12/14 12:32:11;;;;;;;26.40;13.25;;;;;;;-144.32;100.00;68061.97;10365395;28;20034;-84
2022/12/14 12:37:21;;;;;;;28.05;13.65;;;;;;;-144.32;100.00;68061.97;10375623;28;20077;-80
2022/12/14 12:42:42;;;;;;;24.42;13.65;;;;;;;-144.32;100.00;68061.97;10373843;28;20050;-84
2022/12/14 12:48:03;;;;;;;29.02;14.38;;;;;;;-144.32;100.00;68061.97;10380291;28;20049;-87
2022/12/14 12:53:29;;;;;;;29.70;14.40;;;;;;;-144.32;100.00;68061.97;10375290;28;20102;-83
2022/12/14 12:58:34;;;;;;;27.23;14.65;;;;;;;-144.32;100.00;68061.97;10380610;28;20137;-80
2022/12/14 13:03:44;;;;;;;27.33;13.70;;;;;;;-144.32;100.00;68061.97;10404224;28;20080;-80
2022/12/14 13:08:50;;;;;;;29.05;14.38;;;;;;;-144.32;100.00;68061.97;10407399;28;20038;-80
2022/12/14 13:13:55;;;;;;;27.77;15.35;;;;;;;-144.32;100.00;68061.97;10405201;28;20555;-80
2022/12/14 13:19:04;;;;;;;27.98;14.30;;;;;;;-144.32;100.00;68061.97;10406657;28;20433;-81
2022/12/14 13:24:09;;;;;;;25.95;13.50;;;;;;;-144.32;100.00;68061.97;10396317;28;20030;-81
2022/12/14 13:29:23;;;;;;;30.83;15.10;;;;;;;-144.32;100.00;68061.97;10402490;28;20026;-80
2022/12/14 13:34:49;;;;;;;31.75;15.70;;;;;;;-144.32;100.00;68061.97;10400742;28;20049;-80
2022/12/14 13:40:00;;;;;;;29.35;13.57;;;;;;;-144.32;100.00;68061.97;10363443;28;20042;-78
2022/12/14 13:45:12;;;;;;;27.40;15.30;;;;;;;-144.32;100.00;68061.97;10363126;28;20061;-79
2022/12/14 13:50:39;;;;;;;28.77;15.95;;;;;;;-144.32;100.00;68061.97;10368380;28;20643;-81
2022/12/14 13:55:51;;;;;;;31.10;16.17;;;;;;;-144.32;100.00;68061.97;10396443;28;20034;-79
2022/12/14 14:00:55;;;;;;;35.33;17.23;;;;;;;-144.32;100.00;68061.97;10419844;28;20026;-80
2022/12/14 14:06:11;;;;;;;32.08;16.17;;;;;;;-144.32;100.00;68061.97;10387231;28;20045;-77
2022/12/14 14:11:18;;;;;;;34.17;16.95;;;;;;;-144.32;100.00;68061.97;10379930;28;20053;-78
2022/12/14 14:16:24;;;;;;;34.63;16.50;;;;;;;-144.32;100.00;68061.97;10357793;28;20049;-79
2022/12/14 14:21:51;;;;;;;32.42;16.20;;;;;;;-144.32;100.00;68061.97;10356077;28;20042;-81
2022/12/14 14:27:10;;;;;;;34.88;17.10;;;;;;;-144.32;100.00;68061.97;10353570;28;20062;-80
2022/12/14 14:32:37;;;;;;;32.63;16.90;;;;;;;-144.32;100.00;68061.97;10370326;28;20756;-79
2022/12/14 14:37:39;;;;;;;36.67;16.75;;;;;;;-144.32;100.00;68061.97;10365834;28;20042;-81
2022/12/14 14:42:56;;;;;;;34.93;17.07;;;;;;;-144.32;100.00;68061.97;10392157;28;20026;-78
2022/12/14 14:48:03;;;;;;;31.33;16.17;;;;;;;-144.32;100.00;68061.97;10410709;28;20030;-76
2022/12/14 14:53:17;;;;;;;36.47;17.73;;;;;;;-144.32;100.00;68061.97;10413938;28;20044;-80
2022/12/14 14:58:19;;;;;;;;;;;;;;;-144.32;100.00;68061.97;10394311;28;20041;-79
2022/12/14 15:03:27;;;;;;;32.15;17.58;;;;;;;-144.32;100.00;68061.97;10368381;28;20373;-81
2022/12/14 15:08:38;;;;;;;36.75;18.10;;;;;;;-144.32;100.00;68061.97;10376787;28;20149;-77
2022/12/14 15:13:45;;;;;;;37.33;17.10;;;;;;;-144.32;100.00;68061.97;10365294;28;20033;-81
2022/12/14 15:18:48;;;;;;;35.97;18.77;;;;;;;-144.32;100.00;68061.97;10360748;28;20510;-78
2022/12/14 15:23:52;;;;;;;41.97;17.83;;;;;;;-144.32;100.00;68061.97;10344332;28;20192;-79
2022/12/14 15:28:56;;;;;;;34.92;18.17;;;;;;;-144.32;100.00;68061.97;10365469;28;20438;-79
2022/12/14 15:33:59;;;;;;;36.75;18.88;;;;;;;-144.32;100.00;68061.97;10364616;28;20579;-77
2022/12/14 15:39:03;;;;;;;42.47;20.15;;;;;;;-144.32;100.00;68061.97;10375065;28;20037;-83
2022/12/14 15:44:20;;;;;;;37.60;18.92;;;;;;;-144.32;100.00;68061.97;10382406;28;20050;-81
2022/12/14 15:49:22;;;;;;;41.53;17.63;;;;;;;-144.32;100.00;68061.97;10374209;28;20046;-80
2022/12/14 15:54:25;;;;;;;36.05;17.77;;;;;;;-144.32;100.00;68061.97;10370552;28;20149;-80
2022/12/14 15:59:32;;;;;;;40.78;17.98;;;;;;;-144.32;100.00;68061.97;10376058;28;20072;-80
2022/12/14 16:04:36;;;;;;;43.35;19.20;;;;;;;-144.32;100.00;68061.97;10370956;28;20060;-81
2022/12/14 16:09:44;;;;;;;40.92;18.70;;;;;;;-144.32;100.00;68061.97;10400365;28;20076;-79
2022/12/14 16:14:53;;;;;;;34.35;19.42;;;;;;;-144.32;100.00;68061.97;10411855;28;20062;-80
2022/12/14 16:20:01;;;;;;;40.42;19.40;;;;;;;-144.32;100.00;68061.97;10422213;28;20045;-80
2022/12/14 16:25:08;;;;;;;36.47;19.73;;;;;;;-144.32;100.00;68061.97;10404824;28;20045;-80
2022/12/14 16:30:32;;;;;;;38.95;18.63;;;;;;;-144.32;100.00;68061.97;10420008;28;20115;-78
2022/12/14 16:35:36;;;;;;;38.67;17.90;;;;;;;-144.32;100.00;68061.97;10383071;28;20475;-76
2022/12/14 16:40:53;;;;;;;34.08;18.02;;;;;;;-144.32;100.00;68061.97;10367079;28;20405;-77
2022/12/14 16:45:55;;;;;;;35.05;18.27;;;;;;;-144.32;100.00;68061.97;10364472;28;20052;-76
2022/12/14 16:51:14;;;;;;;36.22;18.20;;;;;;;-144.32;100.00;68061.97;10373542;28;20462;-78
2022/12/14 16:56:54;;;;;;;39.10;18.63;;;;;;;-144.32;100.00;68061.97;10372340;28;20072;-80
2022/12/14 17:01:55;;;;;;;41.35;19.80;;;;;;;-144.32;100.00;68061.97;10383490;28;20068;-78
2022/12/14 17:06:59;;;;;;;37.65;18.50;;;;;;;-144.32;100.00;68061.97;10366751;28;20053;-79
2022/12/14 17:12:08;;;;;;;39.60;19.92;;;;;;;-144.32;100.00;68061.97;10369160;28;20096;-76
2022/12/14 17:17:16;;;;;;;43.42;20.92;;;;;;;-144.32;100.00;68061.97;10368914;28;20042;-81
2022/12/14 17:22:26;;;;;;;47.47;21.02;;;;;;;-144.32;100.00;68061.97;10362578;28;20045;-79
2022/12/14 17:27:28;;;;;;;47.20;20.77;;;;;;;-144.32;100.00;68061.97;10362167;28;20104;-81
2022/12/14 17:32:32;;;;;;;39.50;19.50;;;;;;;-144.32;100.00;68061.97;10361599;28;20045;-75
2022/12/14 17:37:33;;;;;;;49.35;23.60;;;;;;;-144.32;100.00;68061.97;10365153;28;20056;-75
2022/12/14 17:42:38;;;;;;;46.88;22.23;;;;;;;-144.32;100.00;68061.97;10364162;28;20042;-79
2022/12/14 17:47:38;;;;;;;48.78;23.05;;;;;;;-144.32;100.00;68061.97;10368425;28;20038;-79
2022/12/14 17:52:39;;;;;;;45.63;22.30;;;;;;;-144.32;100.00;68061.97;10366687;28;20046;-78
2022/12/14 17:57:39;;;;;;;50.03;23.95;;;;;;;-144.32;100.00;68061.97;10381853;28;20038;-76
2022/12/14 18:02:40;;;;;;;53.15;24.75;;;;;;;-144.32;100.00;68061.97;10363412;28;20034;-79
2022/12/14 18:07:41;;;;;;;42.38;21.48;;;;;;;-144.32;100.00;68061.97;10362595;28;20120;-80
2022/12/14 18:12:42;;;;;;;44.78;22.70;;;;;;;-144.32;100.00;68061.97;10365108;28;20516;-80
2022/12/14 18:17:43;;;;;;;41.65;21.00;;;;;;;-144.32;100.00;68061.97;10366590;28;20053;-80
2022/12/14 18:22:45;;;;;;;44.67;21.40;;;;;;;-144.32;100.00;68061.97;10364474;28;20469;-81
2022/12/14 18:27:46;;;;;;;45.17;20.55;;;;;;;-144.32;100.00;68061.97;10366702;28;20052;-78
2022/12/14 18:32:46;;;;;;;46.22;21.30;;;;;;;-144.32;100.00;68061.97;10380338;28;20052;-81
2022/12/14 18:37:49;;;;;;;44.38;21.90;;;;;;;-144.32;100.00;68061.97;10367033;28;20038;-80
2022/12/14 18:42:50;;;;;;;40.13;20.10;;;;;;;-144.32;100.00;68061.97;10335353;28;20506;-80
2022/12/14 18:47:53;;;;;;;45.90;21.05;;;;;;;-144.32;100.00;68061.97;10367015;28;20128;-81
2022/12/14 18:52:56;;;;;;;49.88;23.70;;;;;;;-144.32;100.00;68061.97;10369654;28;20095;-82
2022/12/14 18:57:59;;;;;;;48.08;23.92;;;;;;;-144.32;100.00;68061.97;10369961;28;20756;-87
2022/12/14 19:03:01;;;;;;;50.20;23.60;;;;;;;-144.32;100.00;68061.97;10369472;28;20038;-83
2022/12/14 19:08:03;;;;;;;53.45;24.10;;;;;;;-144.32;100.00;68061.97;10372007;28;20042;-82
2022/12/14 19:13:08;;;;;;;49.13;23.90;;;;;;;-144.32;100.00;68061.97;10374981;28;20050;-84
2022/12/14 19:18:09;;;;;;;45.20;22.02;;;;;;;-144.32;100.00;68061.97;10369526;28;20128;-83
2022/12/14 19:23:17;;;;;;;47.55;23.20;;;;;;;-144.32;100.00;68061.97;10369428;28;20128;-83
2022/12/14 19:28:20;;;;;;;44.30;22.83;;;;;;;-144.32;100.00;68061.97;10356394;28;20861;-83
2022/12/14 19:33:23;;;;;;;47.30;23.48;;;;;;;-144.32;100.00;68061.97;10376056;28;20068;-83
2022/12/14 19:38:30;;;;;;;46.92;22.83;;;;;;;-144.32;100.00;68061.97;10380943;28;20078;-84
2022/12/14 19:43:33;;;;;;;50.03;23.55;;;;;;;-144.32;100.00;68061.97;10397972;28;20050;-84
2022/12/14 19:48:34;;;;;;;46.58;23.02;;;;;;;-144.32;100.00;68061.97;10374276;28;20045;-82
2022/12/14 19:53:36;;;;;;;50.85;25.02;;;;;;;-144.32;100.00;68061.97;10378434;28;20034;-82
2022/12/14 19:58:38;;;;;;;60.20;26.80;;;;;;;-144.32;100.00;68061.97;10396184;28;20034;-82
2022/12/14 20:03:42;;;;;;;51.63;24.80;;;;;;;-144.32;100.00;68061.97;10415689;28;20030;-80
2022/12/14 20:08:42;;;;;;;54.33;25.42;;;;;;;-144.32;100.00;68061.97;10409470;28;20046;-81
2022/12/14 20:13:44;;;;;;;49.30;23.85;;;;;;;-144.32;100.00;68061.97;10400146;28;20030;-83
2022/12/14 20:18:47;;;;;;;51.88;25.33;;;;;;;-144.32;100.00;68061.97;10416534;28;20273;-82
2022/12/14 20:23:50;;;;;;;54.85;23.83;;;;;;;-144.32;100.00;68061.97;10419530;28;20038;-82
2022/12/14 20:28:53;;;;;;;58.33;25.38;;;;;;;-144.32;100.00;68061.97;10382348;28;20046;-85
2022/12/14 20:33:55;;;;;;;;;;;;;;;-144.32;100.00;68061.97;10383407;28;20064;-84
2022/12/14 20:39:03;;;;;;;59.15;24.67;;;;;;;-144.32;100.00;68061.97;10386063;28;19967;-85
2022/12/14 20:44:13;;;;;;;57.03;26.27;;;;;;;-144.32;100.00;68061.97;10391225;28;20041;-83
2022/12/14 20:49:18;;;;;;;56.05;25.33;;;;;;;-144.32;100.00;68061.97;10390336;28;20050;-84
2022/12/14 20:54:21;;;;;;;52.10;23.65;;;;;;;-144.32;100.00;68061.97;10401993;28;20038;-84
2022/12/14 20:59:21;;;;;;;55.42;24.38;;;;;;;-144.32;100.00;68061.97;10384548;28;20049;-83
2022/12/14 21:04:22;;;;;;;60.53;25.08;;;;;;;-144.32;100.00;68061.97;10402866;28;20121;-82
2022/12/14 21:09:23;;;;;;;56.03;24.15;;;;;;;-144.32;100.00;68061.97;10422223;28;20026;-83
2022/12/14 21:14:28;;;;;;;53.00;23.05;;;;;;;-144.32;100.00;68061.97;10422353;28;20026;-81
2022/12/14 21:19:31;;;;;;;49.13;23.15;;;;;;;-144.32;100.00;68061.97;10400467;28;20038;-83
2022/12/14 21:24:32;;;;;;;50.63;24.65;;;;;;;-144.32;100.00;68061.97;10384301;28;20049;-82
2022/12/14 21:29:33;;;;;;;52.10;25.50;;;;;;;-144.32;100.00;68061.97;10383017;28;20037;-85
2022/12/14 21:34:33;;;;;;;47.95;23.48;;;;;;;-144.32;100.00;68061.97;10398152;28;20125;-84
2022/12/14 21:39:34;;;;;;;51.25;24.20;;;;;;;-144.32;100.00;68061.97;10377341;28;20038;-84
2022/12/14 21:44:36;;;;;;;51.75;23.10;;;;;;;-144.32;100.00;68061.97;10396820;28;20060;-84
2022/12/14 21:49:39;;;;;;;48.35;23.75;;;;;;;-144.32;100.00;68061.97;10410202;28;20086;-82
2022/12/14 21:54:40;;;;;;;49.10;23.23;;;;;;;-144.32;100.00;68061.97;10419971;28;20050;-84
2022/12/14 21:59:44;;;;;;;57.28;24.58;;;;;;;-144.32;100.00;68061.97;10397309;28;20057;-84
2022/12/14 22:04:45;;;;;;;52.75;23.77;;;;;;;-144.32;100.00;68061.97;10394101;28;20057;-82
2022/12/14 22:09:48;;;;;;;56.17;24.85;;;;;;;-144.32;100.00;68061.97;10394978;28;20053;-83
2022/12/14 22:14:51;;;;;;;52.08;24.13;;;;;;;-144.32;100.00;68061.97;10389391;28;20093;-80
2022/12/14 22:19:53;;;;;;;49.85;23.48;;;;;;;-144.32;100.00;68061.97;10369699;28;20046;-83
2022/12/14 22:24:54;;;;;;;53.40;24.37;;;;;;;-144.32;100.00;68061.97;10385131;28;20046;-83
2022/12/14 22:29:56;;;;;;;43.92;22.38;;;;;;;-144.32;100.00;68061.97;10383392;28;20041;-83
2022/12/14 22:34:58;;;;;;;46.45;22.33;;;;;;;-144.32;100.00;68061.97;10384332;28;20600;-83
2022/12/14 22:39:59;;;;;;;47.42;23.15;;;;;;;-144.32;100.00;68061.97;10379201;28;20104;-82
2022/12/14 22:45:01;;;;;;;41.92;21.13;;;;;;;-144.32;100.00;68061.97;10373222;28;20049;-81